Austin, Texas
Traffic Map
Current Weather Conditions
Austin, Texas
Overcast Light Rain
Overcast
58°
Feels Like: 58°
Wind Chill: 58° Ceiling: 600
Heat Index: 58° Visibility: 10mi
Dew Point: 57° Wind: 7mph
Humidity: 97% Direction: 90° (E)
Pressure: 29.97in Gusts: 0mph
Raw Report DataKATT 201351Z AUTO 09006KT 10SM -RA OVC006 14/14 A2997 RMK AO2 RAB10 SLP144 P0000 T01440139
Traffic Incident Summary
Active as of:
Severity:
Category:
InformationThere was an issue retrieving the traffic information for this location. Please try a different location or try again shortly.
Advertisements
Track Severe Weather on mobile